Schenectady, NY (12008)

9:59 PM EDT on August 28, 2016 (GMT -0400)
NonFedAWOS | | Change Station

Elev 377 ft 42.85 °N, 73.93 °W | Updated 2 days ago

Thunderstorm
Thunderstorm
75 °F
Feels Like 75 °F
N
5
Wind Variable Wind from South
Gusts mph

Today
High -- | Low -- °F
--% Chance of Precip.
Yesterday
High -- | Low -- °F
Precip. -- in
Pressure 30.09 in
Visibility 10.0 miles
Clouds Scattered Clouds 5500 ft
Scattered Clouds 10000 ft
Mostly Cloudy 25000 ft
Dew Point 66 °F
Humidity 74%
Rainfall in
Snow Depth Not available.
6:16 AM 7:36 PM
Waning Crescent, 12% visible
METAR KALB 290151Z 19007KT 10SM SCT055 SCT100 BKN250 26/18 A3009 RMK AO2 SLP189 T02610178
Pressure 30.09 in
Visibility 10.0 miles
Clouds Scattered Clouds 5500 ft
Scattered Clouds 10000 ft
Mostly Cloudy 25000 ft
Dew Point 66 °F
Humidity 74%
Rainfall in
Snow Depth Not available.
6:16 AM 7:36 PM
Waning Crescent, 12% visible
METAR KALB 290151Z 19007KT 10SM SCT055 SCT100 BKN250 26/18 A3009 RMK AO2 SLP189 T02610178

10-Day Weather Forecast

Almanac

Astronomy

Aug. 28, 2016 Rise Set
Actual Time
Civil Twilight
Nautical Twilight
Astronomical Twilight
Moon
Length of Visible Light
Length of Day
Tomorrow will be .
, % of the Moon is Illuminated

Today's Extremes

State Highs State Lows

Community

WunderPhotos

Upload Photos

1,935,757 photos uploaded!

WunderBlog® & News

Nearby

Air Quality

  Air Quality AQ Index Pollutant
Not available.

Snow Depth

Station Depth Elevation

Earthquake Activity

City Distance Mag. Time & Date
Minimum magnitude displayed is 2.5.

Coastal Water Temperatures

Place Temperature

Stations

Nearby Weather Stations

Station Location Temp. Windchill Dew Point Humidity Wind Precip. Elev Updated Type
                   

Watches & Warnings

There are currently no watches in effect.